createdAt,value
2019-02-04T00:03:22.009Z,1.90
2019-02-04T00:05:51.512Z,2.00
2019-02-04T00:08:21.204Z,1.90
2019-02-04T00:23:20.090Z,2.10
2019-02-04T00:30:48.415Z,2.00
2019-02-04T00:33:18.029Z,1.90
2019-02-04T00:40:46.539Z,2.10
2019-02-04T00:43:15.929Z,2.00
2019-02-04T00:48:14.637Z,2.00
2019-02-04T00:58:12.051Z,2.10
2019-02-04T01:03:11.264Z,1.90
2019-02-04T01:05:40.778Z,1.80
2019-02-04T01:10:39.863Z,1.80
2019-02-04T01:18:11.584Z,1.30
2019-02-04T01:30:38.189Z,1.30
2019-02-04T01:33:26.952Z,1.40
2019-02-04T01:38:25.761Z,1.80
2019-02-04T01:40:55.261Z,1.40
2019-02-04T01:53:21.567Z,1.60
2019-02-04T01:58:21.813Z,1.60
2019-02-04T02:03:20.651Z,1.60
2019-02-04T02:05:50.144Z,1.60
2019-02-04T02:10:49.032Z,1.60
2019-02-04T02:13:18.639Z,1.60
2019-02-04T02:20:46.684Z,1.50
2019-02-04T02:23:16.275Z,1.50
2019-02-04T02:28:15.556Z,1.40
2019-02-04T02:30:45.191Z,1.40
2019-02-04T02:33:14.706Z,1.40
2019-02-04T02:40:43.616Z,2.00
2019-02-04T02:43:13.064Z,1.10
2019-02-04T02:48:11.858Z,1.30
2019-02-04T02:50:41.343Z,1.10
2019-02-04T02:58:09.549Z,1.20
2019-02-04T03:00:38.955Z,1.30
2019-02-04T03:05:37.662Z,1.10
2019-02-04T03:08:07.205Z,1.10
2019-02-04T03:20:33.890Z,0.90
2019-02-04T03:35:32.177Z,1.00
2019-02-04T03:38:01.854Z,0.90
2019-02-04T03:45:31.506Z,1.10
2019-02-04T04:00:35.197Z,0.80
2019-02-04T04:03:04.715Z,0.90
2019-02-04T04:08:03.456Z,0.90
2019-02-04T04:15:31.838Z,0.80
2019-02-04T04:18:01.839Z,0.70
2019-02-04T04:20:31.245Z,0.90
2019-02-04T04:25:31.347Z,0.90
2019-02-04T04:37:58.204Z,1.10
2019-02-04T04:40:27.728Z,0.70
2019-02-04T04:45:27.637Z,0.80
2019-02-04T04:50:26.467Z,0.70
2019-02-04T04:57:56.299Z,0.70
2019-02-04T05:02:58.575Z,0.80
2019-02-04T05:10:27.007Z,0.80
2019-02-04T05:12:56.628Z,0.80
2019-02-04T05:25:31.830Z,0.70
2019-02-04T05:28:01.333Z,0.50
2019-02-04T05:30:30.839Z,0.70
2019-02-04T05:35:29.639Z,0.60
2019-02-04T05:40:28.994Z,0.60
2019-02-04T05:52:55.585Z,0.70
2019-02-04T05:55:25.595Z,0.50
2019-02-04T06:20:25.265Z,0.50
2019-02-04T06:40:20.599Z,0.20
2019-02-04T06:45:19.899Z,-0.10
2019-02-04T06:47:49.448Z,0.20
2019-02-04T06:55:31.994Z,0.20
2019-02-04T06:58:01.477Z,0.30
2019-02-04T07:03:00.592Z,0.20
2019-02-04T07:15:27.408Z,0.10
2019-02-04T07:18:01.961Z,0.10
2019-02-04T07:30:28.376Z,0.10
2019-02-04T07:32:58.257Z,0.20
2019-02-04T07:40:32.986Z,0.20
2019-02-04T07:43:02.602Z,0.30
2019-02-04T07:48:01.538Z,0.30
2019-02-04T07:53:00.355Z,0.30
2019-02-04T07:55:29.749Z,0.50
2019-02-04T08:00:32.895Z,0.50
2019-02-04T08:03:02.465Z,0.60
2019-02-04T08:05:32.183Z,0.50
2019-02-04T08:10:30.777Z,0.50
2019-02-04T08:13:01.907Z,0.70
2019-02-04T08:18:03.603Z,0.70
2019-02-04T08:30:38.077Z,1.00
2019-02-04T08:35:37.220Z,1.10
2019-02-04T08:38:06.719Z,1.10
2019-02-04T08:40:36.842Z,1.20
2019-02-04T08:45:35.806Z,1.40
2019-02-04T08:48:06.593Z,1.30
2019-02-04T09:00:34.530Z,1.50
2019-02-04T09:03:04.073Z,1.60
2019-02-04T09:05:33.540Z,1.60
2019-02-04T09:10:33.945Z,1.60
2019-02-04T09:13:03.491Z,1.70
2019-02-04T09:18:02.542Z,1.90
2019-02-04T09:20:32.009Z,1.90
2019-02-04T09:28:00.541Z,1.90
2019-02-04T09:33:02.311Z,1.60
2019-02-04T09:38:00.929Z,1.70
2019-02-04T09:40:40.243Z,2.10
2019-02-04T09:45:39.782Z,2.10
2019-02-04T09:48:16.388Z,2.10
2019-02-04T09:55:47.235Z,2.30
2019-02-04T09:58:16.753Z,2.20
2019-02-04T10:03:15.540Z,2.40
2019-02-04T10:08:15.171Z,2.60
2019-02-04T10:15:45.872Z,2.40
2019-02-04T10:18:15.881Z,2.40
2019-02-04T10:28:15.909Z,2.70
2019-02-04T10:40:45.905Z,2.80
2019-02-04T10:48:13.836Z,3.00
2019-02-04T10:53:14.448Z,2.90
2019-02-04T10:55:44.077Z,3.00
2019-02-04T11:03:13.326Z,3.20
2019-02-04T11:05:44.599Z,3.20
2019-02-04T11:08:17.235Z,3.20
2019-02-04T11:10:46.831Z,3.20
2019-02-04T11:30:55.649Z,3.50
2019-02-04T11:35:54.760Z,3.80
2019-02-04T11:43:23.782Z,3.80
2019-02-04T11:45:55.099Z,3.60
2019-02-04T11:53:32.583Z,4.00
2019-02-04T11:55:54.451Z,3.90
2019-02-04T11:58:23.847Z,4.10
2019-02-04T12:00:53.666Z,4.00
2019-02-04T12:05:52.483Z,4.20
2019-02-04T12:13:26.930Z,4.10
2019-02-04T12:18:26.938Z,4.00
2019-02-04T12:20:56.893Z,4.20
2019-02-04T12:28:24.885Z,4.30
2019-02-04T12:30:54.737Z,4.40
2019-02-04T12:33:24.623Z,4.30
2019-02-04T12:35:54.142Z,4.30
2019-02-04T12:40:52.728Z,4.30
2019-02-04T12:45:51.633Z,4.30
2019-02-04T12:53:20.464Z,4.40
2019-02-04T12:55:49.861Z,4.80
2019-02-04T13:05:51.058Z,4.60
2019-02-04T13:10:49.877Z,4.60
2019-02-04T13:13:20.022Z,4.70
2019-02-04T13:15:49.696Z,5.20
2019-02-04T13:20:48.633Z,4.70
2019-02-04T13:23:18.017Z,4.60
2019-02-04T13:30:46.235Z,4.70
2019-02-04T13:38:14.753Z,4.70
2019-02-04T13:40:44.835Z,4.80
2019-02-04T13:43:14.695Z,4.60
2019-02-04T13:55:42.315Z,4.60
2019-02-04T14:01:05.492Z,4.50
2019-02-04T14:03:35.001Z,4.70
2019-02-04T14:06:05.073Z,4.80
2019-02-04T14:08:34.426Z,4.80
2019-02-04T14:13:33.029Z,4.60
2019-02-04T14:16:02.810Z,4.60
2019-02-04T14:31:01.356Z,4.90
2019-02-04T14:33:30.860Z,4.50
2019-02-04T14:36:00.331Z,4.80
2019-02-04T14:38:29.874Z,4.80
2019-02-04T14:40:59.453Z,4.60
2019-02-04T14:46:05.526Z,5.10
2019-02-04T14:54:37.660Z,4.50
2019-02-04T14:57:36.932Z,4.30
2019-02-04T15:05:47.176Z,4.20
2019-02-04T15:08:58.019Z,4.10
2019-02-04T15:16:45.384Z,4.10
2019-02-04T15:28:12.246Z,3.70
2019-02-04T15:33:35.441Z,3.70
2019-02-04T15:36:18.263Z,3.50
2019-02-04T15:44:12.403Z,3.70
2019-02-04T15:52:02.319Z,3.50
2019-02-04T15:54:31.828Z,3.50
2019-02-04T15:57:01.292Z,3.20
2019-02-04T15:59:30.804Z,3.30
2019-02-04T16:04:34.840Z,3.20
2019-02-04T16:07:07.047Z,3.20
2019-02-04T16:14:35.758Z,3.10
2019-02-04T16:17:07.071Z,3.10
2019-02-04T16:27:05.053Z,3.00
2019-02-04T16:29:34.641Z,2.90
2019-02-04T16:32:05.262Z,2.70
2019-02-04T16:37:03.986Z,2.90
2019-02-04T16:49:30.761Z,2.60
2019-02-04T16:52:00.197Z,2.70
2019-02-04T16:56:58.797Z,2.60
2019-02-04T16:59:28.312Z,2.30
2019-02-04T17:04:27.213Z,2.50
2019-02-04T17:06:56.724Z,2.60
2019-02-04T17:11:55.850Z,2.50
2019-02-04T17:14:25.242Z,2.40
2019-02-04T17:19:24.921Z,2.50
2019-02-04T17:26:54.110Z,2.30
2019-02-04T17:29:23.507Z,2.40
2019-02-04T17:31:53.023Z,2.30
2019-02-04T17:36:53.055Z,2.40
2019-02-04T17:46:51.388Z,2.20
2019-02-04T17:56:48.719Z,2.20
2019-02-04T17:59:18.742Z,2.10
2019-02-04T18:09:16.432Z,2.30
2019-02-04T18:11:45.835Z,2.20
2019-02-04T18:29:11.255Z,2.20
2019-02-04T18:31:40.761Z,2.00
2019-02-04T18:41:38.578Z,2.10
2019-02-04T18:46:37.594Z,2.10
2019-02-04T18:49:07.302Z,2.10
2019-02-04T19:01:33.978Z,1.80
2019-02-04T19:09:02.347Z,2.00
2019-02-04T19:24:09.080Z,1.80
2019-02-04T19:28:58.792Z,1.80
2019-02-04T19:31:28.494Z,1.90
2019-02-04T19:43:55.010Z,1.90
2019-02-04T19:48:54.038Z,1.70
2019-02-04T20:08:49.658Z,1.80
2019-02-04T20:11:19.576Z,1.70
2019-02-04T20:13:49.077Z,1.60
2019-02-04T20:18:47.785Z,1.40
2019-02-04T20:33:43.697Z,1.60
2019-02-04T20:46:11.332Z,1.30
2019-02-04T20:56:08.749Z,1.40
2019-02-04T20:58:38.274Z,1.50
2019-02-04T21:11:08.158Z,1.60
2019-02-04T21:16:07.355Z,1.60
2019-02-04T21:18:36.858Z,1.50
2019-02-04T21:26:07.008Z,1.60
2019-02-04T21:28:37.038Z,1.50
2019-02-04T21:31:06.946Z,1.50
2019-02-04T21:33:36.770Z,1.50
2019-02-04T21:38:37.010Z,1.40
2019-02-04T21:43:35.617Z,1.40
2019-02-04T21:46:05.218Z,1.50
2019-02-04T21:53:33.543Z,1.60
2019-02-04T22:01:01.541Z,1.60
2019-02-04T22:03:31.147Z,1.60
2019-02-04T22:08:29.757Z,1.50
2019-02-04T22:10:59.792Z,1.50
2019-02-04T22:15:58.471Z,1.10
2019-02-04T22:23:26.584Z,1.60
2019-02-04T22:25:56.397Z,1.40
2019-02-04T22:28:25.908Z,2.10
2019-02-04T22:30:55.820Z,1.50
2019-02-04T22:38:24.035Z,1.70
2019-02-04T22:43:23.039Z,1.60
2019-02-04T22:45:52.549Z,1.70
2019-02-04T22:55:50.060Z,1.60
2019-02-04T23:03:39.057Z,1.70
2019-02-04T23:08:37.661Z,1.50
2019-02-04T23:11:07.222Z,1.20
2019-02-04T23:13:40.567Z,1.40
2019-02-04T23:18:39.171Z,1.40
2019-02-04T23:23:37.876Z,1.30
2019-02-04T23:31:06.705Z,1.30
2019-02-04T23:33:36.314Z,1.30
2019-02-04T23:36:06.527Z,1.30
2019-02-04T23:38:36.046Z,1.80
2019-02-04T23:41:06.165Z,1.30
2019-02-04T23:43:35.670Z,1.70
2019-02-04T23:48:34.371Z,1.30
2019-02-04T23:51:03.775Z,1.30
